This is the latest recevied weather packets stored in our database for station/object OE3WYC-1. If no packets are shown the sender has not sent any weather packets the latest 10 day(s).
| Time | Temp. | Humidity | Pressure | Rain* | Wind** | Luminosity | Snow |
|---|---|---|---|---|---|---|---|
| 1777899306 | 27.78° C | 33% | 1011.9 hPa | 0 mm | - | - | - |
| 1777896905 | 27.78° C | 34% | 1012.2 hPa | 0 mm | - | - | - |
| 1777896607 | 27.22° C | 33% | 1012.2 hPa | 0 mm | - | - | - |
| 1777894506 | 26.67° C | 36% | 1012.8 hPa | 0 mm | - | - | - |
| 1777893906 | 26.11° C | 37% | 1012.9 hPa | 0 mm | - | - | - |
| 1777893606 | 26.11° C | 37% | 1012.9 hPa | 0 mm | - | - | - |
| 1777893007 | 26.11° C | 38% | 1013.1 hPa | 0 mm | - | - | - |
| 1777892405 | 26.11° C | 40% | 1013.2 hPa | 0 mm | - | - | - |
| 1777891205 | 25° C | 41% | 1013.6 hPa | 0 mm | - | - | - |
| 1777889407 | 24.44° C | 43% | 1014.2 hPa | 0 mm | - | - | - |
| 1777889106 | 24.44° C | 43% | 1014.1 hPa | 0 mm | - | - | - |
| 1777887607 | 23.89° C | 44% | 1014.4 hPa | 0 mm | - | - | - |
| 1777886406 | 23.33° C | 45% | 1014.4 hPa | 0 mm | - | - | - |
| 1777885506 | 22.78° C | 48% | 1014.5 hPa | 0 mm | - | - | - |
| 1777880105 | 19.44° C | 55% | 1014.6 hPa | 0 mm | - | - | - |
| 1777878906 | 18.89° C | 58% | 1014.6 hPa | 0 mm | - | - | - |
| 1777873205 | 14.44° C | 65% | 1014.1 hPa | 0 mm | - | - | - |
| 1777870506 | 12.78° C | 64% | 1013.9 hPa | 0 mm | - | - | - |
| 1777869605 | 12.78° C | 64% | 1013.8 hPa | 0 mm | - | - | - |
| 1777868705 | 13.33° C | 62% | 1013.7 hPa | 0 mm | - | - | - |
| 1777864206 | 13.89° C | 60% | 1013.6 hPa | 0 mm | - | - | - |
| 1777863905 | 13.89° C | 60% | 1013.4 hPa | 0 mm | - | - | - |
| 1777859705 | 14.44° C | 57% | 1013.7 hPa | 0 mm | - | - | - |
| 1777859106 | 14.44° C | 57% | 1013.7 hPa | 0 mm | - | - | - |
| 1777858807 | 14.44° C | 57% | 1013.6 hPa | 0 mm | - | - | - |
* Rain latest hour (hover to see other rain measurements)
** Current wind speed in m/s (hover to see current wind gust speed)